sensor_id;sensor_type;location;lat;lon;timestamp;P1;durP1;ratioP1;P2;durP2;ratioP2
19735;SDS011;32064;49.310;8.646;2022-09-21T00:01:11;2.33;;;1.50;;
19735;SDS011;32064;49.310;8.646;2022-09-21T00:03:39;3.20;;;1.43;;
19735;SDS011;32064;49.310;8.646;2022-09-21T00:06:06;2.70;;;1.53;;
19735;SDS011;32064;49.310;8.646;2022-09-21T00:08:33;4.03;;;1.80;;
19735;SDS011;32064;49.310;8.646;2022-09-21T00:10:59;2.53;;;1.70;;
19735;SDS011;32064;49.310;8.646;2022-09-21T00:13:25;3.00;;;1.90;;
19735;SDS011;32064;49.310;8.646;2022-09-21T00:15:53;3.00;;;1.90;;
19735;SDS011;32064;49.310;8.646;2022-09-21T00:18:19;6.80;;;1.77;;
19735;SDS011;32064;49.310;8.646;2022-09-21T00:20:44;2.13;;;1.63;;
19735;SDS011;32064;49.310;8.646;2022-09-21T00:23:10;5.27;;;1.83;;
19735;SDS011;32064;49.310;8.646;2022-09-21T00:25:35;2.40;;;1.90;;
19735;SDS011;32064;49.310;8.646;2022-09-21T00:28:01;2.07;;;1.40;;
19735;SDS011;32064;49.310;8.646;2022-09-21T00:30:26;1.80;;;1.50;;
19735;SDS011;32064;49.310;8.646;2022-09-21T00:32:52;2.50;;;1.70;;
19735;SDS011;32064;49.310;8.646;2022-09-21T00:35:18;3.73;;;1.53;;
19735;SDS011;32064;49.310;8.646;2022-09-21T00:37:44;2.40;;;1.77;;
19735;SDS011;32064;49.310;8.646;2022-09-21T00:40:10;2.20;;;1.40;;
19735;SDS011;32064;49.310;8.646;2022-09-21T00:42:36;2.23;;;1.80;;
19735;SDS011;32064;49.310;8.646;2022-09-21T00:45:02;2.43;;;1.67;;
19735;SDS011;32064;49.310;8.646;2022-09-21T00:47:34;2.23;;;1.60;;
19735;SDS011;32064;49.310;8.646;2022-09-21T00:50:05;1.63;;;1.43;;
19735;SDS011;32064;49.310;8.646;2022-09-21T00:52:35;2.37;;;1.73;;
19735;SDS011;32064;49.310;8.646;2022-09-21T00:55:07;2.50;;;1.67;;
19735;SDS011;32064;49.310;8.646;2022-09-21T00:57:42;3.07;;;1.70;;
19735;SDS011;32064;49.310;8.646;2022-09-21T01:00:10;3.63;;;1.93;;
19735;SDS011;32064;49.310;8.646;2022-09-21T01:02:36;6.13;;;1.90;;
19735;SDS011;32064;49.310;8.646;2022-09-21T01:05:03;2.23;;;1.57;;
19735;SDS011;32064;49.310;8.646;2022-09-21T01:07:31;2.20;;;1.47;;
19735;SDS011;32064;49.310;8.646;2022-09-21T01:10:00;2.30;;;1.33;;
19735;SDS011;32064;49.310;8.646;2022-09-21T01:15:47;6.03;;;1.60;;
19735;SDS011;32064;49.310;8.646;2022-09-21T01:21:18;3.07;;;1.50;;
19735;SDS011;32064;49.310;8.646;2022-09-21T01:32:35;1.57;;;1.33;;
19735;SDS011;32064;49.310;8.646;2022-09-21T01:35:07;3.60;;;1.60;;
19735;SDS011;32064;49.310;8.646;2022-09-21T01:37:46;2.63;;;1.70;;
19735;SDS011;32064;49.310;8.646;2022-09-21T01:40:30;1.33;;;1.13;;
19735;SDS011;32064;49.310;8.646;2022-09-21T01:42:57;1.80;;;1.60;;
19735;SDS011;32064;49.310;8.646;2022-09-21T01:45:29;3.30;;;1.43;;
19735;SDS011;32064;49.310;8.646;2022-09-21T01:47:58;4.20;;;1.37;;
19735;SDS011;32064;49.310;8.646;2022-09-21T01:50:26;3.93;;;1.30;;
19735;SDS011;32064;49.310;8.646;2022-09-21T01:52:57;1.60;;;1.40;;
19735;SDS011;32064;49.310;8.646;2022-09-21T01:55:29;2.37;;;1.53;;
19735;SDS011;32064;49.310;8.646;2022-09-21T01:58:13;4.23;;;1.57;;
19735;SDS011;32064;49.310;8.646;2022-09-21T02:00:43;1.73;;;1.20;;
19735;SDS011;32064;49.310;8.646;2022-09-21T02:03:25;5.93;;;1.40;;
19735;SDS011;32064;49.310;8.646;2022-09-21T02:05:57;1.97;;;1.43;;
19735;SDS011;32064;49.310;8.646;2022-09-21T02:08:23;2.00;;;1.30;;
19735;SDS011;32064;49.310;8.646;2022-09-21T02:10:52;1.40;;;1.30;;
19735;SDS011;32064;49.310;8.646;2022-09-21T02:13:18;3.83;;;1.43;;
19735;SDS011;32064;49.310;8.646;2022-09-21T02:15:54;5.67;;;1.50;;
19735;SDS011;32064;49.310;8.646;2022-09-21T02:24:12;1.63;;;1.17;;
19735;SDS011;32064;49.310;8.646;2022-09-21T02:35:24;1.40;;;1.30;;
19735;SDS011;32064;49.310;8.646;2022-09-21T02:38:03;1.63;;;1.10;;
19735;SDS011;32064;49.310;8.646;2022-09-21T02:43:40;2.10;;;1.30;;
19735;SDS011;32064;49.310;8.646;2022-09-21T02:46:04;1.77;;;1.10;;
19735;SDS011;32064;49.310;8.646;2022-09-21T02:48:39;1.57;;;1.30;;
19735;SDS011;32064;49.310;8.646;2022-09-21T02:51:13;1.50;;;1.37;;
19735;SDS011;32064;49.310;8.646;2022-09-21T02:53:42;1.37;;;1.00;;
19735;SDS011;32064;49.310;8.646;2022-09-21T02:56:10;4.23;;;1.37;;
19735;SDS011;32064;49.310;8.646;2022-09-21T02:58:39;1.40;;;1.30;;
19735;SDS011;32064;49.310;8.646;2022-09-21T03:01:10;5.03;;;1.40;;
19735;SDS011;32064;49.310;8.646;2022-09-21T03:03:37;2.10;;;1.27;;
19735;SDS011;32064;49.310;8.646;2022-09-21T03:06:02;2.37;;;1.47;;
19735;SDS011;32064;49.310;8.646;2022-09-21T03:08:28;2.23;;;1.40;;
19735;SDS011;32064;49.310;8.646;2022-09-21T03:10:54;3.20;;;1.43;;
19735;SDS011;32064;49.310;8.646;2022-09-21T03:13:21;1.23;;;1.10;;
19735;SDS011;32064;49.310;8.646;2022-09-21T03:15:48;4.47;;;1.40;;
19735;SDS011;32064;49.310;8.646;2022-09-21T03:18:13;5.40;;;1.20;;
19735;SDS011;32064;49.310;8.646;2022-09-21T03:20:39;6.10;;;2.23;;
19735;SDS011;32064;49.310;8.646;2022-09-21T03:23:10;1.70;;;1.30;;
19735;SDS011;32064;49.310;8.646;2022-09-21T03:25:36;3.10;;;1.20;;
19735;SDS011;32064;49.310;8.646;2022-09-21T03:28:02;1.83;;;1.50;;
19735;SDS011;32064;49.310;8.646;2022-09-21T03:30:27;7.03;;;1.10;;
19735;SDS011;32064;49.310;8.646;2022-09-21T03:32:53;5.57;;;1.93;;
19735;SDS011;32064;49.310;8.646;2022-09-21T03:35:20;2.20;;;1.43;;
19735;SDS011;32064;49.310;8.646;2022-09-21T03:37:47;2.33;;;1.30;;
19735;SDS011;32064;49.310;8.646;2022-09-21T03:40:14;1.47;;;1.07;;
19735;SDS011;32064;49.310;8.646;2022-09-21T03:42:41;4.83;;;1.63;;
19735;SDS011;32064;49.310;8.646;2022-09-21T03:45:07;2.27;;;1.40;;
19735;SDS011;32064;49.310;8.646;2022-09-21T03:47:34;4.23;;;1.67;;
19735;SDS011;32064;49.310;8.646;2022-09-21T03:50:00;2.43;;;1.00;;
19735;SDS011;32064;49.310;8.646;2022-09-21T03:52:25;1.43;;;1.23;;
19735;SDS011;32064;49.310;8.646;2022-09-21T03:54:51;1.67;;;1.23;;
19735;SDS011;32064;49.310;8.646;2022-09-21T03:57:16;8.40;;;1.43;;
19735;SDS011;32064;49.310;8.646;2022-09-21T03:59:42;2.80;;;1.27;;
19735;SDS011;32064;49.310;8.646;2022-09-21T04:02:07;2.03;;;1.27;;
19735;SDS011;32064;49.310;8.646;2022-09-21T04:04:32;1.30;;;1.17;;
19735;SDS011;32064;49.310;8.646;2022-09-21T04:06:58;1.57;;;1.20;;
19735;SDS011;32064;49.310;8.646;2022-09-21T04:09:24;4.20;;;1.90;;
19735;SDS011;32064;49.310;8.646;2022-09-21T04:11:49;2.00;;;1.60;;
19735;SDS011;32064;49.310;8.646;2022-09-21T04:14:15;1.40;;;1.30;;
19735;SDS011;32064;49.310;8.646;2022-09-21T04:16:41;3.00;;;1.40;;
19735;SDS011;32064;49.310;8.646;2022-09-21T04:19:06;2.50;;;1.53;;
19735;SDS011;32064;49.310;8.646;2022-09-21T04:21:32;5.20;;;1.47;;
19735;SDS011;32064;49.310;8.646;2022-09-21T04:23:58;4.13;;;1.60;;
19735;SDS011;32064;49.310;8.646;2022-09-21T04:26:25;3.07;;;1.90;;
19735;SDS011;32064;49.310;8.646;2022-09-21T04:28:52;1.80;;;1.23;;
19735;SDS011;32064;49.310;8.646;2022-09-21T04:31:19;2.03;;;1.33;;
19735;SDS011;32064;49.310;8.646;2022-09-21T04:33:48;1.20;;;1.10;;
19735;SDS011;32064;49.310;8.646;2022-09-21T04:36:18;1.60;;;1.40;;
19735;SDS011;32064;49.310;8.646;2022-09-21T04:38:48;4.87;;;1.10;;
19735;SDS011;32064;49.310;8.646;2022-09-21T04:41:14;1.70;;;1.37;;
19735;SDS011;32064;49.310;8.646;2022-09-21T04:43:40;5.40;;;1.10;;
19735;SDS011;32064;49.310;8.646;2022-09-21T04:46:08;1.70;;;1.33;;
19735;SDS011;32064;49.310;8.646;2022-09-21T04:48:38;4.30;;;1.23;;
19735;SDS011;32064;49.310;8.646;2022-09-21T04:51:04;2.30;;;1.57;;
19735;SDS011;32064;49.310;8.646;2022-09-21T04:53:32;3.03;;;1.60;;
19735;SDS011;32064;49.310;8.646;2022-09-21T04:55:58;2.03;;;1.47;;
19735;SDS011;32064;49.310;8.646;2022-09-21T04:58:23;4.27;;;1.70;;
19735;SDS011;32064;49.310;8.646;2022-09-21T05:00:49;3.93;;;1.60;;
19735;SDS011;32064;49.310;8.646;2022-09-21T05:03:16;2.43;;;1.50;;
19735;SDS011;32064;49.310;8.646;2022-09-21T05:05:46;2.03;;;1.33;;
19735;SDS011;32064;49.310;8.646;2022-09-21T05:08:16;3.20;;;1.40;;
19735;SDS011;32064;49.310;8.646;2022-09-21T05:10:42;5.90;;;1.50;;
19735;SDS011;32064;49.310;8.646;2022-09-21T05:13:08;2.60;;;1.40;;
19735;SDS011;32064;49.310;8.646;2022-09-21T05:15:37;3.00;;;1.20;;
19735;SDS011;32064;49.310;8.646;2022-09-21T05:18:03;1.80;;;1.23;;
19735;SDS011;32064;49.310;8.646;2022-09-21T05:20:29;2.37;;;1.30;;
19735;SDS011;32064;49.310;8.646;2022-09-21T05:22:54;5.47;;;1.30;;
19735;SDS011;32064;49.310;8.646;2022-09-21T05:25:23;1.43;;;1.27;;
19735;SDS011;32064;49.310;8.646;2022-09-21T05:27:48;2.27;;;1.27;;
19735;SDS011;32064;49.310;8.646;2022-09-21T05:30:14;2.87;;;1.43;;
19735;SDS011;32064;49.310;8.646;2022-09-21T05:32:44;2.97;;;1.30;;
19735;SDS011;32064;49.310;8.646;2022-09-21T05:38:14;1.40;;;1.30;;
19735;SDS011;32064;49.310;8.646;2022-09-21T05:40:42;2.57;;;1.63;;
19735;SDS011;32064;49.310;8.646;2022-09-21T05:43:09;2.13;;;1.50;;
19735;SDS011;32064;49.310;8.646;2022-09-21T05:45:36;3.37;;;1.53;;
19735;SDS011;32064;49.310;8.646;2022-09-21T05:55:55;1.93;;;1.30;;
19735;SDS011;32064;49.310;8.646;2022-09-21T06:03:40;4.40;;;1.63;;
19735;SDS011;32064;49.310;8.646;2022-09-21T06:06:07;2.77;;;1.67;;
19735;SDS011;32064;49.310;8.646;2022-09-21T06:08:33;8.53;;;3.87;;
19735;SDS011;32064;49.310;8.646;2022-09-21T06:10:59;8.73;;;3.60;;
19735;SDS011;32064;49.310;8.646;2022-09-21T06:13:25;6.40;;;3.23;;
19735;SDS011;32064;49.310;8.646;2022-09-21T06:15:50;7.27;;;2.90;;
19735;SDS011;32064;49.310;8.646;2022-09-21T06:18:16;6.10;;;2.13;;
19735;SDS011;32064;49.310;8.646;2022-09-21T06:20:41;4.93;;;1.90;;
19735;SDS011;32064;49.310;8.646;2022-09-21T06:23:08;1.93;;;1.40;;
19735;SDS011;32064;49.310;8.646;2022-09-21T06:25:35;6.83;;;1.70;;
19735;SDS011;32064;49.310;8.646;2022-09-21T06:28:05;1.53;;;1.40;;
19735;SDS011;32064;49.310;8.646;2022-09-21T06:30:32;3.80;;;1.30;;
19735;SDS011;32064;49.310;8.646;2022-09-21T06:33:02;2.17;;;1.67;;
19735;SDS011;32064;49.310;8.646;2022-09-21T06:35:29;1.93;;;1.47;;
19735;SDS011;32064;49.310;8.646;2022-09-21T06:37:56;7.37;;;1.70;;
19735;SDS011;32064;49.310;8.646;2022-09-21T06:40:23;2.00;;;1.13;;
19735;SDS011;32064;49.310;8.646;2022-09-21T06:42:48;1.80;;;1.37;;
19735;SDS011;32064;49.310;8.646;2022-09-21T06:45:14;2.00;;;1.50;;
19735;SDS011;32064;49.310;8.646;2022-09-21T06:47:45;2.07;;;1.17;;
19735;SDS011;32064;49.310;8.646;2022-09-21T06:50:11;1.57;;;1.27;;
19735;SDS011;32064;49.310;8.646;2022-09-21T06:52:36;1.87;;;1.37;;
19735;SDS011;32064;49.310;8.646;2022-09-21T06:55:02;1.23;;;1.13;;
19735;SDS011;32064;49.310;8.646;2022-09-21T06:57:28;1.40;;;1.30;;
19735;SDS011;32064;49.310;8.646;2022-09-21T06:59:55;2.55;;;1.42;;
19735;SDS011;32064;49.310;8.646;2022-09-21T07:02:20;2.03;;;1.13;;
19735;SDS011;32064;49.310;8.646;2022-09-21T07:04:46;2.10;;;1.50;;
19735;SDS011;32064;49.310;8.646;2022-09-21T07:07:11;2.15;;;1.48;;
19735;SDS011;32064;49.310;8.646;2022-09-21T07:09:37;3.30;;;1.55;;
19735;SDS011;32064;49.310;8.646;2022-09-21T07:12:02;3.45;;;1.60;;
19735;SDS011;32064;49.310;8.646;2022-09-21T07:14:27;3.88;;;1.60;;
19735;SDS011;32064;49.310;8.646;2022-09-21T07:16:53;4.32;;;1.77;;
19735;SDS011;32064;49.310;8.646;2022-09-21T07:19:18;2.60;;;1.70;;
19735;SDS011;32064;49.310;8.646;2022-09-21T07:21:43;4.63;;;1.65;;
19735;SDS011;32064;49.310;8.646;2022-09-21T07:24:09;4.40;;;1.50;;
19735;SDS011;32064;49.310;8.646;2022-09-21T07:26:34;2.00;;;1.80;;
19735;SDS011;32064;49.310;8.646;2022-09-21T07:29:01;4.95;;;2.00;;
19735;SDS011;32064;49.310;8.646;2022-09-21T07:31:26;3.58;;;1.67;;
19735;SDS011;32064;49.310;8.646;2022-09-21T07:33:55;2.97;;;1.70;;
19735;SDS011;32064;49.310;8.646;2022-09-21T07:36:24;6.15;;;2.17;;
19735;SDS011;32064;49.310;8.646;2022-09-21T07:38:50;2.13;;;1.90;;
19735;SDS011;32064;49.310;8.646;2022-09-21T07:41:16;1.80;;;1.50;;
19735;SDS011;32064;49.310;8.646;2022-09-21T07:43:41;2.70;;;1.80;;
19735;SDS011;32064;49.310;8.646;2022-09-21T07:46:07;2.38;;;1.70;;
19735;SDS011;32064;49.310;8.646;2022-09-21T07:48:35;1.98;;;1.60;;
19735;SDS011;32064;49.310;8.646;2022-09-21T07:51:02;2.00;;;1.80;;
19735;SDS011;32064;49.310;8.646;2022-09-21T07:53:34;2.45;;;1.63;;
19735;SDS011;32064;49.310;8.646;2022-09-21T07:56:05;4.57;;;2.20;;
19735;SDS011;32064;49.310;8.646;2022-09-21T07:58:33;2.45;;;1.55;;
19735;SDS011;32064;49.310;8.646;2022-09-21T08:01:18;4.07;;;1.77;;
19735;SDS011;32064;49.310;8.646;2022-09-21T08:03:44;2.60;;;1.30;;
19735;SDS011;32064;49.310;8.646;2022-09-21T08:06:09;3.67;;;1.30;;
19735;SDS011;32064;49.310;8.646;2022-09-21T08:08:35;1.90;;;1.63;;
19735;SDS011;32064;49.310;8.646;2022-09-21T08:11:01;2.42;;;1.60;;
19735;SDS011;32064;49.310;8.646;2022-09-21T08:13:27;3.72;;;1.92;;
19735;SDS011;32064;49.310;8.646;2022-09-21T08:16:00;4.13;;;2.03;;
19735;SDS011;32064;49.310;8.646;2022-09-21T08:18:26;3.70;;;1.50;;
19735;SDS011;32064;49.310;8.646;2022-09-21T08:20:56;2.92;;;1.77;;
19735;SDS011;32064;49.310;8.646;2022-09-21T08:23:22;2.72;;;1.10;;
19735;SDS011;32064;49.310;8.646;2022-09-21T08:25:49;1.65;;;1.30;;
19735;SDS011;32064;49.310;8.646;2022-09-21T08:28:15;1.52;;;1.00;;
19735;SDS011;32064;49.310;8.646;2022-09-21T08:30:40;1.83;;;1.10;;
19735;SDS011;32064;49.310;8.646;2022-09-21T08:33:06;1.20;;;0.70;;
19735;SDS011;32064;49.310;8.646;2022-09-21T08:35:32;0.75;;;0.70;;
19735;SDS011;32064;49.310;8.646;2022-09-21T08:37:58;1.08;;;0.50;;
19735;SDS011;32064;49.310;8.646;2022-09-21T08:40:24;0.90;;;0.50;;
19735;SDS011;32064;49.310;8.646;2022-09-21T08:43:00;1.05;;;0.40;;
19735;SDS011;32064;49.310;8.646;2022-09-21T08:45:35;1.48;;;0.50;;
19735;SDS011;32064;49.310;8.646;2022-09-21T08:48:06;0.95;;;0.40;;
19735;SDS011;32064;49.310;8.646;2022-09-21T08:50:43;0.68;;;0.55;;
19735;SDS011;32064;49.310;8.646;2022-09-21T08:53:17;0.52;;;0.50;;
19735;SDS011;32064;49.310;8.646;2022-09-21T08:55:45;3.33;;;0.73;;
19735;SDS011;32064;49.310;8.646;2022-09-21T08:58:27;1.40;;;0.40;;
19735;SDS011;32064;49.310;8.646;2022-09-21T09:06:22;0.75;;;0.40;;
19735;SDS011;32064;49.310;8.646;2022-09-21T09:19:49;1.13;;;0.68;;
19735;SDS011;32064;49.310;8.646;2022-09-21T09:22:32;1.42;;;0.50;;
19735;SDS011;32064;49.310;8.646;2022-09-21T09:25:18;5.15;;;0.70;;
19735;SDS011;32064;49.310;8.646;2022-09-21T09:27:46;1.05;;;0.70;;
19735;SDS011;32064;49.310;8.646;2022-09-21T09:30:19;2.10;;;0.60;;
19735;SDS011;32064;49.310;8.646;2022-09-21T09:35:48;2.60;;;0.55;;
19735;SDS011;32064;49.310;8.646;2022-09-21T09:50:03;0.90;;;0.52;;
19735;SDS011;32064;49.310;8.646;2022-09-21T09:52:32;1.27;;;0.35;;
19735;SDS011;32064;49.310;8.646;2022-09-21T09:54:58;1.77;;;0.60;;
19735;SDS011;32064;49.310;8.646;2022-09-21T09:57:31;1.17;;;0.73;;
19735;SDS011;32064;49.310;8.646;2022-09-21T10:00:04;1.25;;;0.50;;
19735;SDS011;32064;49.310;8.646;2022-09-21T10:02:57;1.48;;;0.50;;
19735;SDS011;32064;49.310;8.646;2022-09-21T10:05:23;1.02;;;0.50;;
19735;SDS011;32064;49.310;8.646;2022-09-21T10:07:50;0.82;;;0.28;;
19735;SDS011;32064;49.310;8.646;2022-09-21T10:12:54;0.70;;;0.57;;
19735;SDS011;32064;49.310;8.646;2022-09-21T10:15:26;3.15;;;0.40;;
19735;SDS011;32064;49.310;8.646;2022-09-21T10:18:06;0.98;;;0.68;;
19735;SDS011;32064;49.310;8.646;2022-09-21T10:20:50;0.98;;;0.30;;
19735;SDS011;32064;49.310;8.646;2022-09-21T10:23:18;1.13;;;0.40;;
19735;SDS011;32064;49.310;8.646;2022-09-21T10:25:43;1.63;;;0.40;;
19735;SDS011;32064;49.310;8.646;2022-09-21T10:28:09;1.60;;;0.43;;
19735;SDS011;32064;49.310;8.646;2022-09-21T10:30:37;1.13;;;0.77;;
19735;SDS011;32064;49.310;8.646;2022-09-21T10:33:03;1.80;;;0.35;;
19735;SDS011;32064;49.310;8.646;2022-09-21T10:35:49;1.60;;;0.47;;
19735;SDS011;32064;49.310;8.646;2022-09-21T10:38:17;0.50;;;0.40;;
19735;SDS011;32064;49.310;8.646;2022-09-21T10:40:44;0.30;;;0.30;;
19735;SDS011;32064;49.310;8.646;2022-09-21T10:46:00;3.20;;;0.30;;
19735;SDS011;32064;49.310;8.646;2022-09-21T10:48:26;1.58;;;0.50;;
19735;SDS011;32064;49.310;8.646;2022-09-21T10:50:53;1.05;;;0.40;;
19735;SDS011;32064;49.310;8.646;2022-09-21T10:53:24;0.55;;;0.28;;
19735;SDS011;32064;49.310;8.646;2022-09-21T10:58:40;0.90;;;0.60;;
19735;SDS011;32064;49.310;8.646;2022-09-21T11:01:34;0.65;;;0.30;;
19735;SDS011;32064;49.310;8.646;2022-09-21T11:04:01;1.48;;;0.30;;
19735;SDS011;32064;49.310;8.646;2022-09-21T11:09:06;1.02;;;0.50;;
19735;SDS011;32064;49.310;8.646;2022-09-21T11:11:48;0.50;;;0.40;;
19735;SDS011;32064;49.310;8.646;2022-09-21T11:17:44;0.50;;;0.30;;
19735;SDS011;32064;49.310;8.646;2022-09-21T11:22:54;3.20;;;0.40;;
19735;SDS011;32064;49.310;8.646;2022-09-21T11:25:42;1.30;;;0.52;;
19735;SDS011;32064;49.310;8.646;2022-09-21T11:28:25;1.73;;;0.40;;
19735;SDS011;32064;49.310;8.646;2022-09-21T11:36:10;0.50;;;0.40;;
19735;SDS011;32064;49.310;8.646;2022-09-21T11:39:05;1.13;;;0.50;;
19735;SDS011;32064;49.310;8.646;2022-09-21T11:42:19;0.70;;;0.45;;
19735;SDS011;32064;49.310;8.646;2022-09-21T11:53:10;2.47;;;0.43;;
19735;SDS011;32064;49.310;8.646;2022-09-21T12:04:04;0.93;;;0.50;;
19735;SDS011;32064;49.310;8.646;2022-09-21T12:07:11;1.05;;;0.38;;
19735;SDS011;32064;49.310;8.646;2022-09-21T12:15:41;0.63;;;0.30;;
19735;SDS011;32064;49.310;8.646;2022-09-21T12:21:35;1.00;;;0.47;;
19735;SDS011;32064;49.310;8.646;2022-09-21T12:24:13;0.40;;;0.30;;
19735;SDS011;32064;49.310;8.646;2022-09-21T12:26:52;0.88;;;0.40;;
19735;SDS011;32064;49.310;8.646;2022-09-21T12:29:25;0.75;;;0.30;;
19735;SDS011;32064;49.310;8.646;2022-09-21T12:32:05;0.30;;;0.20;;
19735;SDS011;32064;49.310;8.646;2022-09-21T12:34:40;1.00;;;0.30;;
19735;SDS011;32064;49.310;8.646;2022-09-21T12:37:12;0.40;;;0.40;;
19735;SDS011;32064;49.310;8.646;2022-09-21T12:39:48;0.52;;;0.22;;
19735;SDS011;32064;49.310;8.646;2022-09-21T12:42:24;1.15;;;0.45;;
19735;SDS011;32064;49.310;8.646;2022-09-21T12:44:55;1.15;;;0.32;;
19735;SDS011;32064;49.310;8.646;2022-09-21T12:47:51;0.60;;;0.40;;
19735;SDS011;32064;49.310;8.646;2022-09-21T12:52:59;0.75;;;0.50;;
19735;SDS011;32064;49.310;8.646;2022-09-21T13:08:34;0.95;;;0.30;;
19735;SDS011;32064;49.310;8.646;2022-09-21T13:11:05;0.47;;;0.30;;
19735;SDS011;32064;49.310;8.646;2022-09-21T13:16:28;0.80;;;0.40;;
19735;SDS011;32064;49.310;8.646;2022-09-21T13:19:03;0.20;;;0.20;;
19735;SDS011;32064;49.310;8.646;2022-09-21T13:22:09;0.65;;;0.40;;
19735;SDS011;32064;49.310;8.646;2022-09-21T13:24:45;0.20;;;0.20;;
19735;SDS011;32064;49.310;8.646;2022-09-21T13:27:54;0.30;;;0.30;;
19735;SDS011;32064;49.310;8.646;2022-09-21T13:41:00;0.20;;;0.20;;
19735;SDS011;32064;49.310;8.646;2022-09-21T13:49:43;0.32;;;0.30;;
19735;SDS011;32064;49.310;8.646;2022-09-21T13:52:04;0.30;;;0.30;;
19735;SDS011;32064;49.310;8.646;2022-09-21T13:54:53;0.38;;;0.38;;
19735;SDS011;32064;49.310;8.646;2022-09-21T13:57:37;0.40;;;0.20;;
19735;SDS011;32064;49.310;8.646;2022-09-21T14:02:37;1.15;;;0.43;;
19735;SDS011;32064;49.310;8.646;2022-09-21T14:08:00;0.30;;;0.30;;
19735;SDS011;32064;49.310;8.646;2022-09-21T14:10:32;0.63;;;0.32;;
19735;SDS011;32064;49.310;8.646;2022-09-21T14:13:02;0.40;;;0.35;;
19735;SDS011;32064;49.310;8.646;2022-09-21T14:15:45;0.20;;;0.20;;
19735;SDS011;32064;49.310;8.646;2022-09-21T14:20:41;1.17;;;0.40;;
19735;SDS011;32064;49.310;8.646;2022-09-21T14:29:12;0.20;;;0.20;;
19735;SDS011;32064;49.310;8.646;2022-09-21T14:31:45;0.50;;;0.30;;
19735;SDS011;32064;49.310;8.646;2022-09-21T14:34:14;1.00;;;0.60;;
19735;SDS011;32064;49.310;8.646;2022-09-21T14:36:45;0.57;;;0.40;;
19735;SDS011;32064;49.310;8.646;2022-09-21T14:39:24;0.32;;;0.30;;
19735;SDS011;32064;49.310;8.646;2022-09-21T14:41:54;0.98;;;0.32;;
19735;SDS011;32064;49.310;8.646;2022-09-21T14:44:29;1.10;;;0.35;;
19735;SDS011;32064;49.310;8.646;2022-09-21T14:50:23;0.20;;;0.20;;
19735;SDS011;32064;49.310;8.646;2022-09-21T15:06:47;0.70;;;0.35;;
19735;SDS011;32064;49.310;8.646;2022-09-21T15:09:38;0.63;;;0.40;;
19735;SDS011;32064;49.310;8.646;2022-09-21T15:12:49;0.30;;;0.30;;
19735;SDS011;32064;49.310;8.646;2022-09-21T15:15:30;0.30;;;0.30;;
19735;SDS011;32064;49.310;8.646;2022-09-21T15:18:01;0.30;;;0.30;;
19735;SDS011;32064;49.310;8.646;2022-09-21T15:20:29;0.82;;;0.47;;
19735;SDS011;32064;49.310;8.646;2022-09-21T15:22:56;0.57;;;0.43;;
19735;SDS011;32064;49.310;8.646;2022-09-21T15:25:25;1.00;;;0.35;;
19735;SDS011;32064;49.310;8.646;2022-09-21T15:28:09;0.85;;;0.40;;
19735;SDS011;32064;49.310;8.646;2022-09-21T15:30:40;0.57;;;0.57;;
19735;SDS011;32064;49.310;8.646;2022-09-21T15:33:10;0.57;;;0.57;;
19735;SDS011;32064;49.310;8.646;2022-09-21T15:35:38;0.63;;;0.63;;
19735;SDS011;32064;49.310;8.646;2022-09-21T15:38:23;0.40;;;0.40;;
19735;SDS011;32064;49.310;8.646;2022-09-21T15:40:53;0.20;;;0.20;;
19735;SDS011;32064;49.310;8.646;2022-09-21T15:43:19;0.73;;;0.40;;
19735;SDS011;32064;49.310;8.646;2022-09-21T15:48:33;0.55;;;0.25;;
19735;SDS011;32064;49.310;8.646;2022-09-21T15:53:57;0.60;;;0.40;;
19735;SDS011;32064;49.310;8.646;2022-09-21T15:56:29;0.40;;;0.40;;
19735;SDS011;32064;49.310;8.646;2022-09-21T15:58:58;2.00;;;0.43;;
19735;SDS011;32064;49.310;8.646;2022-09-21T16:01:39;0.28;;;0.28;;
19735;SDS011;32064;49.310;8.646;2022-09-21T16:04:10;0.60;;;0.40;;
19735;SDS011;32064;49.310;8.646;2022-09-21T16:06:41;0.22;;;0.22;;
19735;SDS011;32064;49.310;8.646;2022-09-21T16:11:52;0.30;;;0.30;;
19735;SDS011;32064;49.310;8.646;2022-09-21T16:14:18;0.40;;;0.30;;
19735;SDS011;32064;49.310;8.646;2022-09-21T16:22:45;0.93;;;0.40;;
19735;SDS011;32064;49.310;8.646;2022-09-21T16:25:19;0.40;;;0.40;;
19735;SDS011;32064;49.310;8.646;2022-09-21T16:30:43;0.40;;;0.40;;
19735;SDS011;32064;49.310;8.646;2022-09-21T16:36:47;0.35;;;0.35;;
19735;SDS011;32064;49.310;8.646;2022-09-21T16:38:56;9.52;;;0.55;;
19735;SDS011;32064;49.310;8.646;2022-09-21T16:41:23;2.08;;;0.55;;
19735;SDS011;32064;49.310;8.646;2022-09-21T16:44:10;0.38;;;0.30;;
19735;SDS011;32064;49.310;8.646;2022-09-21T16:46:44;0.30;;;0.30;;
19735;SDS011;32064;49.310;8.646;2022-09-21T16:49:12;0.40;;;0.40;;
19735;SDS011;32064;49.310;8.646;2022-09-21T16:51:42;1.42;;;0.40;;
19735;SDS011;32064;49.310;8.646;2022-09-21T16:54:10;1.42;;;0.40;;
19735;SDS011;32064;49.310;8.646;2022-09-21T16:56:36;0.60;;;0.40;;
19735;SDS011;32064;49.310;8.646;2022-09-21T16:59:01;0.60;;;0.40;;
19735;SDS011;32064;49.310;8.646;2022-09-21T17:01:36;0.38;;;0.30;;
19735;SDS011;32064;49.310;8.646;2022-09-21T17:04:01;0.50;;;0.40;;
19735;SDS011;32064;49.310;8.646;2022-09-21T17:06:26;0.40;;;0.30;;
19735;SDS011;32064;49.310;8.646;2022-09-21T17:08:52;0.20;;;0.20;;
19735;SDS011;32064;49.310;8.646;2022-09-21T17:11:18;0.47;;;0.40;;
19735;SDS011;32064;49.310;8.646;2022-09-21T17:13:50;1.20;;;0.63;;
19735;SDS011;32064;49.310;8.646;2022-09-21T17:16:16;0.20;;;0.20;;
19735;SDS011;32064;49.310;8.646;2022-09-21T17:18:46;0.40;;;0.40;;
19735;SDS011;32064;49.310;8.646;2022-09-21T17:21:13;0.63;;;0.40;;
19735;SDS011;32064;49.310;8.646;2022-09-21T17:23:39;0.73;;;0.43;;
19735;SDS011;32064;49.310;8.646;2022-09-21T17:26:24;0.68;;;0.60;;
19735;SDS011;32064;49.310;8.646;2022-09-21T17:28:49;1.85;;;0.40;;
19735;SDS011;32064;49.310;8.646;2022-09-21T17:31:17;0.50;;;0.50;;
19735;SDS011;32064;49.310;8.646;2022-09-21T17:33:47;0.50;;;0.50;;
19735;SDS011;32064;49.310;8.646;2022-09-21T17:36:14;0.85;;;0.70;;
19735;SDS011;32064;49.310;8.646;2022-09-21T17:38:41;1.13;;;0.75;;
19735;SDS011;32064;49.310;8.646;2022-09-21T17:41:13;0.85;;;0.70;;
19735;SDS011;32064;49.310;8.646;2022-09-21T17:43:45;0.95;;;0.52;;
19735;SDS011;32064;49.310;8.646;2022-09-21T17:48:55;1.35;;;0.50;;
19735;SDS011;32064;49.310;8.646;2022-09-21T17:51:21;1.60;;;0.50;;
19735;SDS011;32064;49.310;8.646;2022-09-21T17:54:05;0.75;;;0.47;;
19735;SDS011;32064;49.310;8.646;2022-09-21T17:59:07;0.50;;;0.50;;
19735;SDS011;32064;49.310;8.646;2022-09-21T18:02:00;0.55;;;0.40;;
19735;SDS011;32064;49.310;8.646;2022-09-21T18:04:29;3.45;;;0.60;;
19735;SDS011;32064;49.310;8.646;2022-09-21T18:06:57;0.63;;;0.52;;
19735;SDS011;32064;49.310;8.646;2022-09-21T18:09:22;1.85;;;0.70;;
19735;SDS011;32064;49.310;8.646;2022-09-21T18:22:16;1.63;;;0.50;;
19735;SDS011;32064;49.310;8.646;2022-09-21T18:24:48;0.33;;;0.33;;
19735;SDS011;32064;49.310;8.646;2022-09-21T18:27:16;0.50;;;0.50;;
19735;SDS011;32064;49.310;8.646;2022-09-21T18:29:42;0.63;;;0.47;;
19735;SDS011;32064;49.310;8.646;2022-09-21T18:39:53;0.90;;;0.60;;
19735;SDS011;32064;49.310;8.646;2022-09-21T18:45:46;0.60;;;0.60;;
19735;SDS011;32064;49.310;8.646;2022-09-21T18:48:32;2.37;;;0.80;;
19735;SDS011;32064;49.310;8.646;2022-09-21T18:51:13;4.00;;;0.50;;
19735;SDS011;32064;49.310;8.646;2022-09-21T18:53:49;0.93;;;0.53;;
19735;SDS011;32064;49.310;8.646;2022-09-21T18:56:18;1.53;;;0.50;;
19735;SDS011;32064;49.310;8.646;2022-09-21T18:58:43;4.70;;;0.83;;
19735;SDS011;32064;49.310;8.646;2022-09-21T19:01:11;1.23;;;0.97;;
19735;SDS011;32064;49.310;8.646;2022-09-21T19:03:38;2.10;;;0.77;;
19735;SDS011;32064;49.310;8.646;2022-09-21T19:08:45;2.30;;;0.90;;
19735;SDS011;32064;49.310;8.646;2022-09-21T19:11:43;0.90;;;0.50;;